createdAt,value
2022-09-24T00:02:20.655Z,15.40
2022-09-24T00:04:48.880Z,15.30
2022-09-24T00:07:18.546Z,15.30
2022-09-24T00:09:46.810Z,15.20
2022-09-24T00:12:15.030Z,15.20
2022-09-24T00:14:43.323Z,15.20
2022-09-24T00:17:11.830Z,15.20
2022-09-24T00:19:40.277Z,15.10
2022-09-24T00:22:08.502Z,15.10
2022-09-24T00:24:55.425Z,15.10
2022-09-24T00:27:23.643Z,15.10
2022-09-24T00:29:51.915Z,15.00
2022-09-24T00:32:20.133Z,15.00
2022-09-24T00:34:48.351Z,15.00
2022-09-24T00:37:16.631Z,14.90
2022-09-24T00:39:46.742Z,14.90
2022-09-24T00:42:15.673Z,14.90
2022-09-24T00:44:54.700Z,14.90
2022-09-24T00:47:41.620Z,14.90
2022-09-24T00:50:17.521Z,14.80
2022-09-24T00:52:51.192Z,14.80
2022-09-24T00:55:23.733Z,14.80
2022-09-24T00:57:56.281Z,14.80
2022-09-24T01:00:24.964Z,14.70
2022-09-24T01:02:57.799Z,14.70
2022-09-24T01:05:26.056Z,14.70
2022-09-24T01:07:54.576Z,14.70
2022-09-24T01:10:51.247Z,14.70
2022-09-24T01:13:43.387Z,14.70
2022-09-24T01:16:34.851Z,14.60
2022-09-24T01:19:14.571Z,14.60
2022-09-24T01:21:47.974Z,14.60
2022-09-24T01:24:28.287Z,14.60
2022-09-24T01:27:03.819Z,14.60
2022-09-24T01:29:45.641Z,14.60
2022-09-24T01:32:20.322Z,14.50
2022-09-24T01:34:53.238Z,14.50
2022-09-24T01:37:25.203Z,14.50
2022-09-24T01:39:55.978Z,14.50
2022-09-24T01:42:25.069Z,14.40
2022-09-24T01:44:56.068Z,14.50
2022-09-24T01:47:34.875Z,14.40
2022-09-24T01:50:04.176Z,14.40
2022-09-24T01:52:38.258Z,14.40
2022-09-24T01:55:09.379Z,14.40
2022-09-24T01:57:42.530Z,14.40
2022-09-24T02:00:14.494Z,14.30
2022-09-24T02:02:47.721Z,14.30
2022-09-24T02:05:21.230Z,14.20
2022-09-24T02:07:57.495Z,14.20
2022-09-24T02:10:46.431Z,14.20
2022-09-24T02:13:19.206Z,14.20
2022-09-24T02:15:53.578Z,14.10
2022-09-24T02:18:26.972Z,14.10
2022-09-24T02:20:55.766Z,14.10
2022-09-24T02:23:27.540Z,14.10
2022-09-24T02:25:58.919Z,14.10
2022-09-24T02:28:28.017Z,14.00
2022-09-24T02:31:03.755Z,14.00
2022-09-24T02:33:51.540Z,14.00
2022-09-24T02:36:20.094Z,14.00
2022-09-24T02:38:48.348Z,14.00
2022-09-24T02:41:16.710Z,14.00
2022-09-24T02:43:45.134Z,14.00
2022-09-24T02:46:14.829Z,14.00
2022-09-24T02:48:43.186Z,14.00
2022-09-24T02:51:11.417Z,14.00
2022-09-24T02:53:39.691Z,13.90
2022-09-24T02:56:08.336Z,13.90
2022-09-24T02:58:37.686Z,13.90
2022-09-24T03:01:06.311Z,13.90
2022-09-24T03:03:35.958Z,13.90
2022-09-24T03:06:04.818Z,13.90
2022-09-24T03:08:33.179Z,13.80
2022-09-24T03:11:01.530Z,13.80
2022-09-24T03:13:29.771Z,13.80
2022-09-24T03:15:58.094Z,13.80
2022-09-24T03:18:26.552Z,13.80
2022-09-24T03:21:00.138Z,13.80
2022-09-24T03:23:29.080Z,13.70
2022-09-24T03:25:59.010Z,13.70
2022-09-24T03:28:27.867Z,13.70
2022-09-24T03:31:01.216Z,13.70
2022-09-24T03:33:31.371Z,13.60
2022-09-24T03:36:02.823Z,13.60
2022-09-24T03:38:31.899Z,13.60
2022-09-24T03:41:00.698Z,13.60
2022-09-24T03:43:29.307Z,13.60
2022-09-24T03:45:57.555Z,13.50
2022-09-24T03:48:27.324Z,13.50
2022-09-24T03:50:55.970Z,13.50
2022-09-24T03:53:25.661Z,13.50
2022-09-24T03:55:57.005Z,13.40
2022-09-24T03:58:25.852Z,13.40
2022-09-24T04:00:54.745Z,13.40
2022-09-24T04:03:23.588Z,13.30
2022-09-24T04:05:52.427Z,13.30
2022-09-24T04:08:22.259Z,13.30
2022-09-24T04:10:52.347Z,13.30
2022-09-24T04:13:21.281Z,13.30
2022-09-24T04:15:50.327Z,13.30
2022-09-24T04:18:19.284Z,13.20
2022-09-24T04:20:48.098Z,13.20
2022-09-24T04:23:16.690Z,13.10
2022-09-24T04:25:45.442Z,13.10
2022-09-24T04:28:15.057Z,13.10
2022-09-24T04:30:43.316Z,13.10
2022-09-24T04:33:12.116Z,13.10
2022-09-24T04:35:40.393Z,13.10
2022-09-24T04:38:08.599Z,13.10
2022-09-24T04:40:36.937Z,13.10
2022-09-24T04:43:06.138Z,13.10
2022-09-24T04:45:36.006Z,13.10
2022-09-24T04:48:04.301Z,13.10
2022-09-24T04:50:34.523Z,13.10
2022-09-24T04:53:03.428Z,13.10
2022-09-24T04:55:32.417Z,13.10
2022-09-24T04:58:00.963Z,13.10
2022-09-24T05:00:33.553Z,13.10
2022-09-24T05:03:04.790Z,13.20
2022-09-24T05:05:33.328Z,13.10
2022-09-24T05:08:01.993Z,13.20
2022-09-24T05:10:31.419Z,13.20
2022-09-24T05:12:59.768Z,13.20
2022-09-24T05:15:28.092Z,13.20
2022-09-24T05:17:56.315Z,13.30
2022-09-24T05:20:26.561Z,13.30
2022-09-24T05:22:55.460Z,13.30
2022-09-24T05:25:23.848Z,13.30
2022-09-24T05:27:53.522Z,13.40
2022-09-24T05:30:23.358Z,13.40
2022-09-24T05:32:53.103Z,13.40
2022-09-24T05:35:22.887Z,13.50
2022-09-24T05:37:53.817Z,13.50
2022-09-24T05:40:39.822Z,13.60
2022-09-24T05:43:08.204Z,13.60
2022-09-24T05:45:36.490Z,13.70
2022-09-24T05:48:05.524Z,13.70
2022-09-24T05:50:35.114Z,13.80
2022-09-24T05:53:06.486Z,13.80
2022-09-24T05:55:35.155Z,13.90
2022-09-24T05:58:07.351Z,13.90
2022-09-24T06:00:36.540Z,14.00
2022-09-24T06:03:07.876Z,14.10
2022-09-24T06:05:36.569Z,14.20
2022-09-24T06:08:08.149Z,14.30
2022-09-24T06:10:37.623Z,14.40
2022-09-24T06:13:06.051Z,14.50
2022-09-24T06:15:35.068Z,14.60
2022-09-24T06:18:03.321Z,14.60
2022-09-24T06:20:31.641Z,14.70
2022-09-24T06:23:00.427Z,14.70
2022-09-24T06:25:31.126Z,14.80
2022-09-24T06:28:01.429Z,14.90
2022-09-24T06:30:30.753Z,15.00
2022-09-24T06:33:05.401Z,15.00
2022-09-24T06:35:35.352Z,15.10
2022-09-24T06:38:03.695Z,15.10
2022-09-24T06:40:36.939Z,15.20
2022-09-24T06:43:06.390Z,15.30
2022-09-24T06:45:35.010Z,15.30
2022-09-24T06:48:05.413Z,15.40
2022-09-24T06:50:35.145Z,15.40
2022-09-24T06:53:08.871Z,15.50
2022-09-24T06:55:39.562Z,15.50
2022-09-24T06:58:09.954Z,15.60
2022-09-24T07:00:39.963Z,15.70
2022-09-24T07:03:08.807Z,15.70
2022-09-24T07:05:41.085Z,15.90
2022-09-24T07:08:11.679Z,15.90
2022-09-24T07:10:43.820Z,16.00
2022-09-24T07:13:13.345Z,16.10
2022-09-24T07:15:41.724Z,16.10
2022-09-24T07:18:10.345Z,16.20
2022-09-24T07:20:38.751Z,16.30
2022-09-24T07:23:08.398Z,16.40
2022-09-24T07:25:37.539Z,16.40
2022-09-24T07:28:09.519Z,16.40
2022-09-24T07:30:38.304Z,16.50
2022-09-24T07:33:07.489Z,16.50
2022-09-24T07:35:38.337Z,16.50
2022-09-24T07:38:08.376Z,16.60
2022-09-24T07:40:36.700Z,16.60
2022-09-24T07:43:13.936Z,16.70
2022-09-24T07:45:43.439Z,16.70
2022-09-24T07:48:12.936Z,16.80
2022-09-24T07:50:42.700Z,16.90
2022-09-24T07:53:12.424Z,16.90
2022-09-24T07:55:41.363Z,17.00
2022-09-24T07:58:14.116Z,17.00
2022-09-24T08:00:42.754Z,17.10
2022-09-24T08:03:11.123Z,17.20
2022-09-24T08:05:45.494Z,17.30
2022-09-24T08:08:14.278Z,17.30
2022-09-24T08:10:43.105Z,17.40
2022-09-24T08:13:12.762Z,17.40
2022-09-24T08:15:57.708Z,17.50
2022-09-24T08:18:26.191Z,17.60
2022-09-24T08:20:54.497Z,17.60
2022-09-24T08:23:22.886Z,17.70
2022-09-24T08:25:51.288Z,17.70
2022-09-24T08:28:20.945Z,17.80
2022-09-24T08:30:49.251Z,17.80
2022-09-24T08:33:17.538Z,17.80
2022-09-24T08:35:45.791Z,17.80
2022-09-24T08:38:14.051Z,17.80
2022-09-24T08:40:47.525Z,17.90
2022-09-24T08:43:27.139Z,17.90
2022-09-24T08:46:16.587Z,17.90
2022-09-24T08:48:51.537Z,18.00
2022-09-24T08:51:22.422Z,18.10
2022-09-24T08:53:54.545Z,18.10
2022-09-24T08:56:27.094Z,18.20
2022-09-24T08:59:00.442Z,18.20
2022-09-24T09:01:37.299Z,18.30
2022-09-24T09:04:18.950Z,18.30
2022-09-24T09:07:07.822Z,18.40
2022-09-24T09:09:45.991Z,18.40
2022-09-24T09:12:18.997Z,18.50
2022-09-24T09:14:54.272Z,18.50
2022-09-24T09:17:32.341Z,18.60
2022-09-24T09:20:04.693Z,18.60
2022-09-24T09:22:37.091Z,18.70
2022-09-24T09:25:16.434Z,18.80
2022-09-24T09:27:44.694Z,18.80
2022-09-24T09:30:22.325Z,18.90
2022-09-24T09:33:10.216Z,18.90
2022-09-24T09:35:49.288Z,19.00
2022-09-24T09:38:25.464Z,19.10
2022-09-24T09:41:04.506Z,19.20
2022-09-24T09:43:34.035Z,19.30
2022-09-24T09:46:14.193Z,19.40
2022-09-24T09:48:48.031Z,19.40
2022-09-24T09:51:22.686Z,19.50
2022-09-24T09:53:56.774Z,19.60
2022-09-24T09:56:26.878Z,19.60
2022-09-24T09:59:04.328Z,19.60
2022-09-24T10:01:36.110Z,19.60
2022-09-24T10:04:05.888Z,19.70
2022-09-24T10:06:36.332Z,19.70
2022-09-24T10:09:13.316Z,19.80
2022-09-24T10:11:42.242Z,19.90
2022-09-24T10:14:13.288Z,19.90
2022-09-24T10:16:45.506Z,20.00
2022-09-24T10:19:20.487Z,20.00
2022-09-24T10:21:49.167Z,20.10
2022-09-24T10:24:20.374Z,20.10
2022-09-24T10:26:49.863Z,20.00
2022-09-24T10:29:38.488Z,20.00
2022-09-24T10:32:17.495Z,20.00
2022-09-24T10:34:57.360Z,20.00
2022-09-24T10:37:28.638Z,20.10
2022-09-24T10:40:00.997Z,20.10
2022-09-24T10:42:31.120Z,20.20
2022-09-24T10:45:02.308Z,20.30
2022-09-24T10:47:39.587Z,20.30
2022-09-24T10:50:26.683Z,20.40
2022-09-24T10:52:58.799Z,20.40
2022-09-24T10:55:57.240Z,20.50
2022-09-24T10:58:48.118Z,20.60
2022-09-24T11:01:20.377Z,20.60
2022-09-24T11:04:10.896Z,20.60
2022-09-24T11:06:47.544Z,20.70
2022-09-24T11:09:29.229Z,20.70
2022-09-24T11:12:06.206Z,20.80
2022-09-24T11:14:53.466Z,20.80
2022-09-24T11:17:34.652Z,20.80
2022-09-24T11:20:24.343Z,20.90
2022-09-24T11:23:29.416Z,20.90
2022-09-24T11:26:04.139Z,20.90
2022-09-24T11:28:52.671Z,21.00
2022-09-24T11:31:29.049Z,21.10
2022-09-24T11:34:17.033Z,21.10
2022-09-24T11:36:59.119Z,21.20
2022-09-24T11:39:43.759Z,21.30
2022-09-24T11:42:23.380Z,21.30
2022-09-24T11:45:14.307Z,21.40
2022-09-24T11:47:56.652Z,21.30
2022-09-24T11:50:38.168Z,21.40
2022-09-24T11:53:14.897Z,21.40
2022-09-24T11:55:49.500Z,21.50
2022-09-24T11:58:21.698Z,21.50
2022-09-24T12:00:54.330Z,21.50
2022-09-24T12:03:26.662Z,21.50
2022-09-24T12:06:01.093Z,21.50
2022-09-24T12:08:38.384Z,21.60
2022-09-24T12:11:15.194Z,21.60
2022-09-24T12:13:48.131Z,21.60
2022-09-24T12:16:19.870Z,21.60
2022-09-24T12:18:55.494Z,21.60
2022-09-24T12:21:28.185Z,21.50
2022-09-24T12:24:03.502Z,21.50
2022-09-24T12:26:32.424Z,21.50
2022-09-24T12:29:21.948Z,21.60
2022-09-24T12:32:13.711Z,21.60
2022-09-24T12:34:50.929Z,21.60
2022-09-24T12:37:24.306Z,21.70
2022-09-24T12:40:01.872Z,21.80
2022-09-24T12:42:36.027Z,21.80
2022-09-24T12:45:06.336Z,21.90
2022-09-24T12:47:46.655Z,21.90
2022-09-24T12:50:22.752Z,22.00
2022-09-24T12:52:51.014Z,21.90
2022-09-24T12:55:23.671Z,22.00
2022-09-24T12:57:54.870Z,22.00
2022-09-24T13:00:41.430Z,22.00
2022-09-24T13:03:34.369Z,22.00
2022-09-24T13:06:03.253Z,22.10
2022-09-24T13:08:38.430Z,22.00
2022-09-24T13:11:30.820Z,22.00
2022-09-24T13:14:02.675Z,22.10
2022-09-24T13:16:33.050Z,22.10
2022-09-24T13:19:02.857Z,22.20
2022-09-24T13:21:32.602Z,22.30
2022-09-24T13:24:11.547Z,22.40
2022-09-24T13:26:41.320Z,22.50
2022-09-24T13:29:25.526Z,22.50
2022-09-24T13:32:00.941Z,22.60
2022-09-24T13:34:32.028Z,22.70
2022-09-24T13:37:03.836Z,22.70
2022-09-24T13:39:41.888Z,22.70
2022-09-24T13:42:19.242Z,22.70
2022-09-24T13:44:50.312Z,22.80
2022-09-24T13:47:27.819Z,22.80
2022-09-24T13:50:04.680Z,22.90
2022-09-24T13:52:37.088Z,23.00
2022-09-24T13:55:13.127Z,23.30
2022-09-24T13:57:46.752Z,23.10
2022-09-24T14:00:20.090Z,23.00
2022-09-24T14:02:57.137Z,22.90
2022-09-24T14:05:27.615Z,22.80
2022-09-24T14:07:59.062Z,22.70
2022-09-24T14:10:27.292Z,22.60
2022-09-24T14:13:11.362Z,22.60
2022-09-24T14:15:40.003Z,22.60
2022-09-24T14:18:16.222Z,22.50
2022-09-24T14:20:45.856Z,22.50
2022-09-24T14:23:20.041Z,22.50
2022-09-24T14:25:50.361Z,22.50
2022-09-24T14:28:21.424Z,22.40
2022-09-24T14:30:52.719Z,22.40
2022-09-24T14:33:25.829Z,22.40
2022-09-24T14:35:56.011Z,22.40
2022-09-24T14:38:29.375Z,22.40
2022-09-24T14:41:01.214Z,22.40
2022-09-24T14:43:38.379Z,22.40
2022-09-24T14:46:10.010Z,22.40
2022-09-24T14:48:38.343Z,22.40
2022-09-24T14:51:06.753Z,22.30
2022-09-24T14:53:36.991Z,22.30
2022-09-24T14:56:20.826Z,22.20
2022-09-24T14:58:50.452Z,22.20
2022-09-24T15:01:21.100Z,22.20
2022-09-24T15:03:51.134Z,22.20
2022-09-24T15:06:22.347Z,22.10
2022-09-24T15:08:57.465Z,22.10
2022-09-24T15:11:28.724Z,22.10
2022-09-24T15:14:03.867Z,22.00
2022-09-24T15:16:34.866Z,21.90
2022-09-24T15:19:19.674Z,21.90
2022-09-24T15:21:49.548Z,21.90
2022-09-24T15:24:19.485Z,21.90
2022-09-24T15:26:49.506Z,21.80
2022-09-24T15:29:24.439Z,21.80
2022-09-24T15:31:52.889Z,21.70
2022-09-24T15:34:21.584Z,21.60
2022-09-24T15:36:50.527Z,21.60
2022-09-24T15:39:20.768Z,21.50
2022-09-24T15:41:49.022Z,21.40
2022-09-24T15:44:23.139Z,21.40
2022-09-24T15:46:52.230Z,21.30
2022-09-24T15:49:22.218Z,21.30
2022-09-24T15:51:52.241Z,21.20
2022-09-24T15:54:21.723Z,21.10
2022-09-24T15:56:52.574Z,21.10
2022-09-24T15:59:23.418Z,21.00
2022-09-24T16:01:54.518Z,21.00
2022-09-24T16:04:22.897Z,20.90
2022-09-24T16:06:51.155Z,20.90
2022-09-24T16:09:19.690Z,20.80
2022-09-24T16:11:48.018Z,20.80
2022-09-24T16:14:16.257Z,20.70
2022-09-24T16:16:45.874Z,20.60
2022-09-24T16:19:14.426Z,20.60
2022-09-24T16:21:42.727Z,20.50
2022-09-24T16:24:11.110Z,20.40
2022-09-24T16:26:39.743Z,20.30
2022-09-24T16:29:10.451Z,20.30
2022-09-24T16:31:38.974Z,20.20
2022-09-24T16:34:08.713Z,20.10
2022-09-24T16:36:36.934Z,20.00
2022-09-24T16:39:05.537Z,20.00
2022-09-24T16:41:34.630Z,19.90
2022-09-24T16:44:03.185Z,19.80
2022-09-24T16:46:31.985Z,19.70
2022-09-24T16:49:00.214Z,19.70
2022-09-24T16:51:29.802Z,19.60
2022-09-24T16:53:58.583Z,19.50
2022-09-24T16:56:26.984Z,19.50
2022-09-24T16:58:55.223Z,19.40
2022-09-24T17:01:24.005Z,19.40
2022-09-24T17:03:53.513Z,19.30
2022-09-24T17:06:23.234Z,19.20
2022-09-24T17:09:10.748Z,19.20
2022-09-24T17:11:40.590Z,19.10
2022-09-24T17:14:10.523Z,19.10
2022-09-24T17:16:39.203Z,19.00
2022-09-24T17:19:08.450Z,18.90
2022-09-24T17:21:37.745Z,18.90
2022-09-24T17:24:07.673Z,18.80
2022-09-24T17:26:36.711Z,18.80
2022-09-24T17:29:05.626Z,18.70
2022-09-24T17:31:34.095Z,18.70
2022-09-24T17:34:04.804Z,18.60
2022-09-24T17:36:34.884Z,18.50
2022-09-24T17:39:04.208Z,18.50
2022-09-24T17:41:34.212Z,18.40
2022-09-24T17:44:02.745Z,18.40
2022-09-24T17:46:32.634Z,18.30
2022-09-24T17:49:02.123Z,18.30
2022-09-24T17:51:32.844Z,18.20
2022-09-24T17:54:02.635Z,18.20
2022-09-24T17:56:33.732Z,18.10
2022-09-24T17:59:02.082Z,18.10
2022-09-24T18:01:33.669Z,18.10
2022-09-24T18:04:02.156Z,18.00
2022-09-24T18:06:33.045Z,18.00
2022-09-24T18:09:02.451Z,17.90
2022-09-24T18:11:34.123Z,17.90
2022-09-24T18:14:03.539Z,17.80
2022-09-24T18:16:33.624Z,17.80
2022-09-24T18:19:03.152Z,17.70
2022-09-24T18:21:32.661Z,17.70
2022-09-24T18:24:02.030Z,17.70
2022-09-24T18:26:32.506Z,17.70
2022-09-24T18:29:05.988Z,17.60
2022-09-24T18:31:38.743Z,17.60
2022-09-24T18:34:08.375Z,17.50
2022-09-24T18:36:39.049Z,17.50
2022-09-24T18:39:11.581Z,17.40
2022-09-24T18:41:40.077Z,17.40
2022-09-24T18:44:11.153Z,17.40
2022-09-24T18:46:39.639Z,17.30
2022-09-24T18:49:08.141Z,17.30
2022-09-24T18:51:38.298Z,17.20
2022-09-24T18:54:08.484Z,17.20
2022-09-24T18:56:37.389Z,17.20
2022-09-24T18:59:09.969Z,17.10
2022-09-24T19:01:40.510Z,17.10
2022-09-24T19:04:12.044Z,17.10
2022-09-24T19:06:41.932Z,17.00
2022-09-24T19:09:11.791Z,17.00
2022-09-24T19:11:41.093Z,17.00
2022-09-24T19:14:09.424Z,16.90
2022-09-24T19:16:39.114Z,16.90
2022-09-24T19:19:07.360Z,16.90
2022-09-24T19:21:35.612Z,16.90
2022-09-24T19:24:05.688Z,16.80
2022-09-24T19:26:35.927Z,16.80
2022-09-24T19:29:05.255Z,16.80
2022-09-24T19:31:35.949Z,16.80
2022-09-24T19:34:06.883Z,16.70
2022-09-24T19:36:43.838Z,16.70
2022-09-24T19:39:14.157Z,16.70
2022-09-24T19:41:42.859Z,16.70
2022-09-24T19:44:11.574Z,16.60
2022-09-24T19:46:41.187Z,16.60
2022-09-24T19:49:11.070Z,16.60
2022-09-24T19:51:40.320Z,16.60
2022-09-24T19:54:09.614Z,16.50
2022-09-24T19:56:38.234Z,16.50
2022-09-24T19:59:08.039Z,16.50
2022-09-24T20:01:36.551Z,16.50
2022-09-24T20:04:07.076Z,16.50
2022-09-24T20:06:38.440Z,16.40
2022-09-24T20:09:07.257Z,16.40
2022-09-24T20:11:36.075Z,16.40
2022-09-24T20:14:06.032Z,16.40
2022-09-24T20:16:34.549Z,16.40
2022-09-24T20:19:04.779Z,16.40
2022-09-24T20:21:36.951Z,16.40
2022-09-24T20:24:07.243Z,16.30
2022-09-24T20:26:54.007Z,16.30
2022-09-24T20:29:23.205Z,16.30
2022-09-24T20:31:53.691Z,16.30
2022-09-24T20:34:23.950Z,16.20
2022-09-24T20:36:53.679Z,16.20
2022-09-24T20:39:22.628Z,16.20
2022-09-24T20:41:50.878Z,16.10
2022-09-24T20:44:19.224Z,16.10
2022-09-24T20:46:47.511Z,16.10
2022-09-24T20:49:22.483Z,16.10
2022-09-24T20:51:56.288Z,16.10
2022-09-24T20:54:28.330Z,16.00
2022-09-24T20:56:57.288Z,16.00
2022-09-24T20:59:27.182Z,16.10
2022-09-24T21:01:56.129Z,16.10
2022-09-24T21:04:24.894Z,16.00
2022-09-24T21:06:55.238Z,16.00
2022-09-24T21:09:23.844Z,16.00
2022-09-24T21:11:54.577Z,15.90
2022-09-24T21:14:23.360Z,15.90
2022-09-24T21:16:55.135Z,15.90
2022-09-24T21:19:24.379Z,15.90
2022-09-24T21:21:53.140Z,15.90
2022-09-24T21:24:25.093Z,15.90
2022-09-24T21:26:59.806Z,15.90
2022-09-24T21:29:28.155Z,15.90
2022-09-24T21:31:56.410Z,15.90
2022-09-24T21:34:24.726Z,15.90
2022-09-24T21:36:53.708Z,15.90
2022-09-24T21:39:23.814Z,15.90
2022-09-24T21:41:55.082Z,15.90
2022-09-24T21:44:25.063Z,15.90
2022-09-24T21:46:53.619Z,15.90
2022-09-24T21:49:22.879Z,15.90
2022-09-24T21:51:52.510Z,15.80
2022-09-24T21:54:21.192Z,15.80
2022-09-24T21:56:49.654Z,15.80
2022-09-24T21:59:35.409Z,15.80
2022-09-24T22:02:05.936Z,15.80
2022-09-24T22:04:35.468Z,15.70
2022-09-24T22:07:04.322Z,15.70
2022-09-24T22:09:33.126Z,15.70
2022-09-24T22:12:04.530Z,15.70
2022-09-24T22:14:34.832Z,15.70
2022-09-24T22:17:05.925Z,15.60
2022-09-24T22:19:34.329Z,15.60
2022-09-24T22:22:03.074Z,15.60
2022-09-24T22:24:31.386Z,15.60
2022-09-24T22:26:59.602Z,15.50
2022-09-24T22:29:27.846Z,15.40
2022-09-24T22:31:56.046Z,15.30
2022-09-24T22:34:42.859Z,15.30
2022-09-24T22:37:11.176Z,15.20
2022-09-24T22:39:39.440Z,15.10
2022-09-24T22:42:07.761Z,15.10
2022-09-24T22:44:35.981Z,15.00
2022-09-24T22:47:04.223Z,15.00
2022-09-24T22:49:33.856Z,14.90
2022-09-24T22:52:02.734Z,14.90
2022-09-24T22:54:31.582Z,14.90
2022-09-24T22:56:59.801Z,14.80
2022-09-24T22:59:28.033Z,14.80
2022-09-24T23:01:56.272Z,14.80
2022-09-24T23:04:24.534Z,14.70
2022-09-24T23:06:54.151Z,14.70
2022-09-24T23:09:22.395Z,14.70
2022-09-24T23:11:51.630Z,14.70
2022-09-24T23:14:19.899Z,14.70
2022-09-24T23:16:48.218Z,14.60
2022-09-24T23:19:18.893Z,14.60
2022-09-24T23:21:47.572Z,14.60
2022-09-24T23:24:19.061Z,14.60
2022-09-24T23:26:47.722Z,14.60
2022-09-24T23:29:16.632Z,14.60
2022-09-24T23:31:44.890Z,14.60
2022-09-24T23:34:14.603Z,14.50
2022-09-24T23:36:45.213Z,14.50
2022-09-24T23:39:13.513Z,14.40
2022-09-24T23:41:43.153Z,14.40
2022-09-24T23:44:11.512Z,14.40
2022-09-24T23:46:39.897Z,14.40
2022-09-24T23:49:08.185Z,14.40
2022-09-24T23:51:36.442Z,14.40
2022-09-24T23:54:04.794Z,14.40
2022-09-24T23:56:33.186Z,14.40
2022-09-24T23:59:02.982Z,14.40
